sensor_id;sensor_type;location;lat;lon;timestamp;temperature;humidity
62363;DHT22;48396;48.426;1.500;2023-04-06T00:01:36;15.20;59.60
62363;DHT22;48396;48.426;1.500;2023-04-06T00:04:02;15.00;60.20
62363;DHT22;48396;48.426;1.500;2023-04-06T00:06:28;14.90;60.60
62363;DHT22;48396;48.426;1.500;2023-04-06T00:08:55;14.70;61.00
62363;DHT22;48396;48.426;1.500;2023-04-06T00:11:21;14.70;60.90
62363;DHT22;48396;48.426;1.500;2023-04-06T00:13:47;14.70;61.30
62363;DHT22;48396;48.426;1.500;2023-04-06T00:16:12;14.70;61.00
62363;DHT22;48396;48.426;1.500;2023-04-06T00:18:38;14.80;61.00
62363;DHT22;48396;48.426;1.500;2023-04-06T00:21:05;14.90;60.70
62363;DHT22;48396;48.426;1.500;2023-04-06T00:23:31;14.90;60.60
62363;DHT22;48396;48.426;1.500;2023-04-06T00:25:56;15.00;60.60
62363;DHT22;48396;48.426;1.500;2023-04-06T00:28:22;15.00;60.60
62363;DHT22;48396;48.426;1.500;2023-04-06T00:30:51;15.00;60.60
62363;DHT22;48396;48.426;1.500;2023-04-06T00:33:18;15.10;60.70
62363;DHT22;48396;48.426;1.500;2023-04-06T00:35:44;15.10;60.60
62363;DHT22;48396;48.426;1.500;2023-04-06T00:38:10;15.10;60.60
62363;DHT22;48396;48.426;1.500;2023-04-06T00:40:35;15.00;61.30
62363;DHT22;48396;48.426;1.500;2023-04-06T00:43:01;14.90;61.20
62363;DHT22;48396;48.426;1.500;2023-04-06T00:45:27;14.90;61.30
62363;DHT22;48396;48.426;1.500;2023-04-06T00:47:53;15.00;61.20
62363;DHT22;48396;48.426;1.500;2023-04-06T00:50:19;15.00;61.00
62363;DHT22;48396;48.426;1.500;2023-04-06T00:52:45;14.90;62.00
62363;DHT22;48396;48.426;1.500;2023-04-06T00:55:10;14.70;62.40
62363;DHT22;48396;48.426;1.500;2023-04-06T00:57:36;14.60;62.80
62363;DHT22;48396;48.426;1.500;2023-04-06T01:00:02;14.60;62.60
62363;DHT22;48396;48.426;1.500;2023-04-06T01:02:28;14.60;62.80
62363;DHT22;48396;48.426;1.500;2023-04-06T01:04:54;14.60;62.80
62363;DHT22;48396;48.426;1.500;2023-04-06T01:07:20;14.70;62.70
62363;DHT22;48396;48.426;1.500;2023-04-06T01:09:45;14.70;62.60
62363;DHT22;48396;48.426;1.500;2023-04-06T01:12:11;14.80;62.40
62363;DHT22;48396;48.426;1.500;2023-04-06T01:14:36;14.70;62.30
62363;DHT22;48396;48.426;1.500;2023-04-06T01:17:02;14.70;62.40
62363;DHT22;48396;48.426;1.500;2023-04-06T01:19:28;14.80;62.40
62363;DHT22;48396;48.426;1.500;2023-04-06T01:21:54;14.80;62.60
62363;DHT22;48396;48.426;1.500;2023-04-06T01:24:20;14.70;62.70
62363;DHT22;48396;48.426;1.500;2023-04-06T01:26:45;14.70;62.70
62363;DHT22;48396;48.426;1.500;2023-04-06T01:29:11;14.70;62.70
62363;DHT22;48396;48.426;1.500;2023-04-06T01:31:37;14.60;62.90
62363;DHT22;48396;48.426;1.500;2023-04-06T01:34:03;14.50;63.30
62363;DHT22;48396;48.426;1.500;2023-04-06T01:36:28;14.60;63.30
62363;DHT22;48396;48.426;1.500;2023-04-06T01:38:55;14.70;63.10
62363;DHT22;48396;48.426;1.500;2023-04-06T01:41:20;14.70;63.00
62363;DHT22;48396;48.426;1.500;2023-04-06T01:43:47;14.70;63.00
62363;DHT22;48396;48.426;1.500;2023-04-06T01:46:14;14.70;63.10
62363;DHT22;48396;48.426;1.500;2023-04-06T01:48:39;14.70;63.20
62363;DHT22;48396;48.426;1.500;2023-04-06T01:51:05;14.70;63.20
62363;DHT22;48396;48.426;1.500;2023-04-06T01:53:31;14.70;63.20
62363;DHT22;48396;48.426;1.500;2023-04-06T01:55:56;14.80;63.20
62363;DHT22;48396;48.426;1.500;2023-04-06T01:58:22;14.70;63.30
62363;DHT22;48396;48.426;1.500;2023-04-06T02:00:47;14.60;63.60
62363;DHT22;48396;48.426;1.500;2023-04-06T02:03:13;14.70;63.60
62363;DHT22;48396;48.426;1.500;2023-04-06T02:05:40;14.70;63.40
62363;DHT22;48396;48.426;1.500;2023-04-06T02:08:06;14.70;63.40
62363;DHT22;48396;48.426;1.500;2023-04-06T02:10:35;14.70;63.40
62363;DHT22;48396;48.426;1.500;2023-04-06T02:13:01;14.70;63.50
62363;DHT22;48396;48.426;1.500;2023-04-06T02:15:27;14.70;63.50
62363;DHT22;48396;48.426;1.500;2023-04-06T02:17:53;14.70;63.60
62363;DHT22;48396;48.426;1.500;2023-04-06T02:20:19;14.70;63.90
62363;DHT22;48396;48.426;1.500;2023-04-06T02:22:45;14.70;63.80
62363;DHT22;48396;48.426;1.500;2023-04-06T02:25:10;14.70;63.80
62363;DHT22;48396;48.426;1.500;2023-04-06T02:27:37;14.70;63.90
62363;DHT22;48396;48.426;1.500;2023-04-06T02:30:03;14.70;63.70
62363;DHT22;48396;48.426;1.500;2023-04-06T02:32:29;14.70;63.80
62363;DHT22;48396;48.426;1.500;2023-04-06T02:34:54;14.70;63.80
62363;DHT22;48396;48.426;1.500;2023-04-06T02:37:20;14.60;64.10
62363;DHT22;48396;48.426;1.500;2023-04-06T02:39:46;14.40;64.90
62363;DHT22;48396;48.426;1.500;2023-04-06T02:42:12;14.30;65.00
62363;DHT22;48396;48.426;1.500;2023-04-06T02:44:37;14.30;65.00
62363;DHT22;48396;48.426;1.500;2023-04-06T02:47:03;14.30;65.00
62363;DHT22;48396;48.426;1.500;2023-04-06T02:49:28;14.40;65.10
62363;DHT22;48396;48.426;1.500;2023-04-06T02:51:54;14.40;64.80
62363;DHT22;48396;48.426;1.500;2023-04-06T02:54:20;14.50;64.80
62363;DHT22;48396;48.426;1.500;2023-04-06T02:56:45;14.50;64.70
62363;DHT22;48396;48.426;1.500;2023-04-06T02:59:11;14.50;64.70
62363;DHT22;48396;48.426;1.500;2023-04-06T03:01:36;14.50;64.80
62363;DHT22;48396;48.426;1.500;2023-04-06T03:04:02;14.40;64.80
62363;DHT22;48396;48.426;1.500;2023-04-06T03:06:28;14.50;65.00
62363;DHT22;48396;48.426;1.500;2023-04-06T03:08:54;14.40;64.90
62363;DHT22;48396;48.426;1.500;2023-04-06T03:11:19;14.50;65.00
62363;DHT22;48396;48.426;1.500;2023-04-06T03:13:45;14.50;64.90
62363;DHT22;48396;48.426;1.500;2023-04-06T03:16:11;14.50;64.80
62363;DHT22;48396;48.426;1.500;2023-04-06T03:18:37;14.50;64.90
62363;DHT22;48396;48.426;1.500;2023-04-06T03:21:03;14.40;65.20
62363;DHT22;48396;48.426;1.500;2023-04-06T03:23:29;14.30;65.50
62363;DHT22;48396;48.426;1.500;2023-04-06T03:25:54;14.30;65.80
62363;DHT22;48396;48.426;1.500;2023-04-06T03:28:20;14.20;65.80
62363;DHT22;48396;48.426;1.500;2023-04-06T03:30:45;14.30;65.80
62363;DHT22;48396;48.426;1.500;2023-04-06T03:33:11;14.20;66.10
62363;DHT22;48396;48.426;1.500;2023-04-06T03:35:37;14.20;65.90
62363;DHT22;48396;48.426;1.500;2023-04-06T03:38:03;14.20;65.80
62363;DHT22;48396;48.426;1.500;2023-04-06T03:40:30;14.30;65.80
62363;DHT22;48396;48.426;1.500;2023-04-06T03:42:56;14.30;65.80
62363;DHT22;48396;48.426;1.500;2023-04-06T03:45:21;14.30;65.80
62363;DHT22;48396;48.426;1.500;2023-04-06T03:47:47;14.40;65.80
62363;DHT22;48396;48.426;1.500;2023-04-06T05:38:24;13.50;73.10
62363;DHT22;48396;48.426;1.500;2023-04-06T05:40:50;13.40;74.10
62363;DHT22;48396;48.426;1.500;2023-04-06T05:43:15;13.30;74.50
62363;DHT22;48396;48.426;1.500;2023-04-06T05:45:43;13.30;74.80
62363;DHT22;48396;48.426;1.500;2023-04-06T05:48:09;13.40;74.60
62363;DHT22;48396;48.426;1.500;2023-04-06T05:50:34;13.50;74.80
62363;DHT22;48396;48.426;1.500;2023-04-06T05:53:00;13.30;76.60
62363;DHT22;48396;48.426;1.500;2023-04-06T05:55:25;13.30;75.50
62363;DHT22;48396;48.426;1.500;2023-04-06T05:57:51;13.30;75.30
62363;DHT22;48396;48.426;1.500;2023-04-06T06:00:17;13.40;75.90
62363;DHT22;48396;48.426;1.500;2023-04-06T06:02:42;13.30;77.40
62363;DHT22;48396;48.426;1.500;2023-04-06T06:05:08;13.30;76.30
62363;DHT22;48396;48.426;1.500;2023-04-06T06:07:35;13.30;77.20
62363;DHT22;48396;48.426;1.500;2023-04-06T06:10:01;13.20;77.20
62363;DHT22;48396;48.426;1.500;2023-04-06T06:12:26;13.30;77.20
62363;DHT22;48396;48.426;1.500;2023-04-06T06:14:52;13.40;77.00
62363;DHT22;48396;48.426;1.500;2023-04-06T06:17:17;13.40;77.00
62363;DHT22;48396;48.426;1.500;2023-04-06T06:19:43;13.40;77.20
62363;DHT22;48396;48.426;1.500;2023-04-06T06:22:08;13.30;77.60
62363;DHT22;48396;48.426;1.500;2023-04-06T06:24:34;13.30;77.80
62363;DHT22;48396;48.426;1.500;2023-04-06T06:27:00;13.20;78.80
62363;DHT22;48396;48.426;1.500;2023-04-06T06:29:26;13.10;79.10
62363;DHT22;48396;48.426;1.500;2023-04-06T06:31:51;13.00;79.90
62363;DHT22;48396;48.426;1.500;2023-04-06T06:34:17;13.10;80.10
62363;DHT22;48396;48.426;1.500;2023-04-06T06:36:42;13.00;80.80
62363;DHT22;48396;48.426;1.500;2023-04-06T06:39:08;13.00;81.80
62363;DHT22;48396;48.426;1.500;2023-04-06T06:41:33;12.90;82.30
62363;DHT22;48396;48.426;1.500;2023-04-06T06:43:59;12.80;83.80
62363;DHT22;48396;48.426;1.500;2023-04-06T06:46:25;12.90;84.10
62363;DHT22;48396;48.426;1.500;2023-04-06T06:48:50;13.00;84.10
62363;DHT22;48396;48.426;1.500;2023-04-06T06:51:16;13.10;84.20
62363;DHT22;48396;48.426;1.500;2023-04-06T06:53:41;13.20;84.30
62363;DHT22;48396;48.426;1.500;2023-04-06T06:56:07;13.10;85.00
62363;DHT22;48396;48.426;1.500;2023-04-06T06:58:33;13.10;84.90
62363;DHT22;48396;48.426;1.500;2023-04-06T07:00:59;13.10;84.80
62363;DHT22;48396;48.426;1.500;2023-04-06T07:03:24;13.10;85.40
62363;DHT22;48396;48.426;1.500;2023-04-06T07:05:50;12.90;86.80
62363;DHT22;48396;48.426;1.500;2023-04-06T07:08:23;12.80;88.00
62363;DHT22;48396;48.426;1.500;2023-04-06T07:10:50;12.80;87.90
62363;DHT22;48396;48.426;1.500;2023-04-06T07:13:18;12.80;88.30
62363;DHT22;48396;48.426;1.500;2023-04-06T07:15:47;12.90;88.80
62363;DHT22;48396;48.426;1.500;2023-04-06T07:18:13;12.80;90.10
62363;DHT22;48396;48.426;1.500;2023-04-06T07:20:38;12.80;90.60
62363;DHT22;48396;48.426;1.500;2023-04-06T07:23:04;12.80;90.60
62363;DHT22;48396;48.426;1.500;2023-04-06T07:25:30;12.70;91.50
62363;DHT22;48396;48.426;1.500;2023-04-06T07:27:56;12.60;91.80
62363;DHT22;48396;48.426;1.500;2023-04-06T07:30:21;12.70;92.20
62363;DHT22;48396;48.426;1.500;2023-04-06T07:32:47;12.70;92.40
62363;DHT22;48396;48.426;1.500;2023-04-06T07:35:14;12.70;92.90
62363;DHT22;48396;48.426;1.500;2023-04-06T07:37:39;12.80;93.10
62363;DHT22;48396;48.426;1.500;2023-04-06T07:40:05;12.80;93.10
62363;DHT22;48396;48.426;1.500;2023-04-06T07:42:31;12.90;93.20
62363;DHT22;48396;48.426;1.500;2023-04-06T07:44:58;12.90;93.30
62363;DHT22;48396;48.426;1.500;2023-04-06T07:47:23;13.00;93.30
62363;DHT22;48396;48.426;1.500;2023-04-06T07:49:49;13.00;93.50
62363;DHT22;48396;48.426;1.500;2023-04-06T07:52:15;13.00;93.70
62363;DHT22;48396;48.426;1.500;2023-04-06T07:54:41;13.00;93.80
62363;DHT22;48396;48.426;1.500;2023-04-06T07:57:07;12.90;94.00
62363;DHT22;48396;48.426;1.500;2023-04-06T07:59:33;12.90;94.00
62363;DHT22;48396;48.426;1.500;2023-04-06T08:01:58;13.00;94.30
62363;DHT22;48396;48.426;1.500;2023-04-06T08:04:24;13.00;94.30
62363;DHT22;48396;48.426;1.500;2023-04-06T08:06:49;13.00;94.30
62363;DHT22;48396;48.426;1.500;2023-04-06T08:09:15;13.00;94.40
62363;DHT22;48396;48.426;1.500;2023-04-06T08:11:41;13.00;94.40
62363;DHT22;48396;48.426;1.500;2023-04-06T08:14:06;12.90;94.50
62363;DHT22;48396;48.426;1.500;2023-04-06T08:16:32;13.00;94.60
62363;DHT22;48396;48.426;1.500;2023-04-06T08:18:57;12.90;94.80
62363;DHT22;48396;48.426;1.500;2023-04-06T08:21:23;12.90;95.00
62363;DHT22;48396;48.426;1.500;2023-04-06T08:23:48;12.80;95.10
62363;DHT22;48396;48.426;1.500;2023-04-06T08:26:14;12.90;95.30
62363;DHT22;48396;48.426;1.500;2023-04-06T08:28:40;12.90;95.50
62363;DHT22;48396;48.426;1.500;2023-04-06T08:31:06;12.80;95.60
62363;DHT22;48396;48.426;1.500;2023-04-06T08:33:32;12.70;95.90
62363;DHT22;48396;48.426;1.500;2023-04-06T08:36:07;12.70;96.10
62363;DHT22;48396;48.426;1.500;2023-04-06T08:38:32;12.80;96.20
62363;DHT22;48396;48.426;1.500;2023-04-06T08:40:58;12.70;96.50
62363;DHT22;48396;48.426;1.500;2023-04-06T08:43:24;12.60;96.90
62363;DHT22;48396;48.426;1.500;2023-04-06T08:45:52;12.70;96.90
62363;DHT22;48396;48.426;1.500;2023-04-06T08:48:18;12.70;96.90
62363;DHT22;48396;48.426;1.500;2023-04-06T08:50:44;12.80;96.90
62363;DHT22;48396;48.426;1.500;2023-04-06T08:53:11;12.80;96.70
62363;DHT22;48396;48.426;1.500;2023-04-06T08:55:37;12.90;96.60
62363;DHT22;48396;48.426;1.500;2023-04-06T08:58:06;12.90;96.70
62363;DHT22;48396;48.426;1.500;2023-04-06T09:00:38;12.80;96.90
62363;DHT22;48396;48.426;1.500;2023-04-06T09:03:05;12.80;97.10
62363;DHT22;48396;48.426;1.500;2023-04-06T09:05:31;12.90;96.90
62363;DHT22;48396;48.426;1.500;2023-04-06T09:07:57;13.00;96.90
62363;DHT22;48396;48.426;1.500;2023-04-06T09:10:22;13.10;96.90
62363;DHT22;48396;48.426;1.500;2023-04-06T09:12:50;13.00;97.00
62363;DHT22;48396;48.426;1.500;2023-04-06T09:15:20;13.00;97.00
62363;DHT22;48396;48.426;1.500;2023-04-06T09:17:46;13.10;97.00
62363;DHT22;48396;48.426;1.500;2023-04-06T09:20:12;13.00;97.10
62363;DHT22;48396;48.426;1.500;2023-04-06T09:22:41;13.00;97.20
62363;DHT22;48396;48.426;1.500;2023-04-06T09:25:09;13.00;97.40
62363;DHT22;48396;48.426;1.500;2023-04-06T09:27:37;12.90;97.50
62363;DHT22;48396;48.426;1.500;2023-04-06T09:30:10;13.00;97.40
62363;DHT22;48396;48.426;1.500;2023-04-06T09:32:53;13.10;97.30
62363;DHT22;48396;48.426;1.500;2023-04-06T09:35:20;13.10;97.30
62363;DHT22;48396;48.426;1.500;2023-04-06T09:37:49;13.20;97.50
62363;DHT22;48396;48.426;1.500;2023-04-06T09:40:16;13.10;97.60
62363;DHT22;48396;48.426;1.500;2023-04-06T09:42:49;13.10;97.60
62363;DHT22;48396;48.426;1.500;2023-04-06T09:45:17;13.10;97.60
62363;DHT22;48396;48.426;1.500;2023-04-06T09:47:44;13.20;97.50
62363;DHT22;48396;48.426;1.500;2023-04-06T09:50:12;13.20;97.60
62363;DHT22;48396;48.426;1.500;2023-04-06T09:52:46;13.40;97.60
62363;DHT22;48396;48.426;1.500;2023-04-06T09:55:23;13.40;97.50
62363;DHT22;48396;48.426;1.500;2023-04-06T09:57:59;13.40;97.60
62363;DHT22;48396;48.426;1.500;2023-04-06T10:00:29;13.30;97.60
62363;DHT22;48396;48.426;1.500;2023-04-06T10:06:09;13.30;98.00
62363;DHT22;48396;48.426;1.500;2023-04-06T10:08:39;13.30;97.90
62363;DHT22;48396;48.426;1.500;2023-04-06T10:11:08;13.30;98.40
62363;DHT22;48396;48.426;1.500;2023-04-06T10:13:34;13.30;98.40
62363;DHT22;48396;48.426;1.500;2023-04-06T10:16:01;13.30;98.40
62363;DHT22;48396;48.426;1.500;2023-04-06T10:18:27;13.40;98.60
62363;DHT22;48396;48.426;1.500;2023-04-06T10:21:07;13.50;98.60
62363;DHT22;48396;48.426;1.500;2023-04-06T10:23:43;13.50;98.50
62363;DHT22;48396;48.426;1.500;2023-04-06T10:26:15;13.70;98.40
62363;DHT22;48396;48.426;1.500;2023-04-06T10:28:43;13.80;98.30
62363;DHT22;48396;48.426;1.500;2023-04-06T10:31:09;13.80;98.30
62363;DHT22;48396;48.426;1.500;2023-04-06T10:33:35;13.70;98.40
62363;DHT22;48396;48.426;1.500;2023-04-06T10:36:11;13.80;98.20
62363;DHT22;48396;48.426;1.500;2023-04-06T10:38:38;13.70;98.20
62363;DHT22;48396;48.426;1.500;2023-04-06T10:41:11;13.70;98.30
62363;DHT22;48396;48.426;1.500;2023-04-06T10:43:39;13.70;98.60
62363;DHT22;48396;48.426;1.500;2023-04-06T10:46:06;13.70;98.70
62363;DHT22;48396;48.426;1.500;2023-04-06T10:48:45;13.80;98.50
62363;DHT22;48396;48.426;1.500;2023-04-06T10:51:16;13.90;98.40
62363;DHT22;48396;48.426;1.500;2023-04-06T10:53:46;13.90;98.30
62363;DHT22;48396;48.426;1.500;2023-04-06T10:56:15;13.90;98.50
62363;DHT22;48396;48.426;1.500;2023-04-06T10:58:49;14.00;98.50
62363;DHT22;48396;48.426;1.500;2023-04-06T11:01:16;14.00;98.50
62363;DHT22;48396;48.426;1.500;2023-04-06T11:03:53;14.10;98.40
62363;DHT22;48396;48.426;1.500;2023-04-06T11:06:20;14.20;98.10
62363;DHT22;48396;48.426;1.500;2023-04-06T11:08:45;14.20;97.90
62363;DHT22;48396;48.426;1.500;2023-04-06T11:11:13;14.10;97.90
62363;DHT22;48396;48.426;1.500;2023-04-06T11:13:42;14.10;97.90
62363;DHT22;48396;48.426;1.500;2023-04-06T11:21:13;14.10;97.80
62363;DHT22;48396;48.426;1.500;2023-04-06T11:23:39;14.10;97.70
62363;DHT22;48396;48.426;1.500;2023-04-06T11:26:04;14.10;97.50
62363;DHT22;48396;48.426;1.500;2023-04-06T11:28:30;14.20;97.60
62363;DHT22;48396;48.426;1.500;2023-04-06T11:30:56;14.20;97.40
62363;DHT22;48396;48.426;1.500;2023-04-06T11:33:22;14.20;97.20
62363;DHT22;48396;48.426;1.500;2023-04-06T11:35:50;14.20;97.10
62363;DHT22;48396;48.426;1.500;2023-04-06T11:38:18;14.30;97.10
62363;DHT22;48396;48.426;1.500;2023-04-06T11:40:45;14.30;97.10
62363;DHT22;48396;48.426;1.500;2023-04-06T11:43:13;14.40;97.00
62363;DHT22;48396;48.426;1.500;2023-04-06T11:45:42;14.50;97.00
62363;DHT22;48396;48.426;1.500;2023-04-06T11:48:18;14.70;97.10
62363;DHT22;48396;48.426;1.500;2023-04-06T11:50:46;14.70;96.60
62363;DHT22;48396;48.426;1.500;2023-04-06T11:53:12;14.70;96.50
62363;DHT22;48396;48.426;1.500;2023-04-06T11:55:38;14.80;96.40
62363;DHT22;48396;48.426;1.500;2023-04-06T11:58:04;14.80;96.30
62363;DHT22;48396;48.426;1.500;2023-04-06T12:00:30;14.80;96.00
62363;DHT22;48396;48.426;1.500;2023-04-06T12:03:00;14.80;96.00
62363;DHT22;48396;48.426;1.500;2023-04-06T12:05:27;14.90;95.60
62363;DHT22;48396;48.426;1.500;2023-04-06T12:07:52;14.80;95.60
62363;DHT22;48396;48.426;1.500;2023-04-06T12:10:18;14.90;95.70
62363;DHT22;48396;48.426;1.500;2023-04-06T12:12:44;15.00;95.70
62363;DHT22;48396;48.426;1.500;2023-04-06T12:15:10;15.10;95.30
62363;DHT22;48396;48.426;1.500;2023-04-06T12:17:36;15.20;95.40
62363;DHT22;48396;48.426;1.500;2023-04-06T12:20:02;15.20;94.60
62363;DHT22;48396;48.426;1.500;2023-04-06T12:22:28;15.20;94.80
62363;DHT22;48396;48.426;1.500;2023-04-06T12:24:53;15.30;94.70
62363;DHT22;48396;48.426;1.500;2023-04-06T12:27:19;15.30;94.90
62363;DHT22;48396;48.426;1.500;2023-04-06T12:29:45;15.40;94.70
62363;DHT22;48396;48.426;1.500;2023-04-06T12:32:10;15.40;94.20
62363;DHT22;48396;48.426;1.500;2023-04-06T12:34:37;15.50;94.10
62363;DHT22;48396;48.426;1.500;2023-04-06T12:37:03;15.60;93.80
62363;DHT22;48396;48.426;1.500;2023-04-06T12:39:28;15.60;93.30
62363;DHT22;48396;48.426;1.500;2023-04-06T12:41:55;15.70;93.50
62363;DHT22;48396;48.426;1.500;2023-04-06T12:44:21;15.70;93.50
62363;DHT22;48396;48.426;1.500;2023-04-06T12:46:47;15.80;93.40
62363;DHT22;48396;48.426;1.500;2023-04-06T12:49:12;15.70;93.40
62363;DHT22;48396;48.426;1.500;2023-04-06T12:51:38;15.80;93.20
62363;DHT22;48396;48.426;1.500;2023-04-06T12:54:04;15.90;93.20
62363;DHT22;48396;48.426;1.500;2023-04-06T12:56:29;16.00;93.20
62363;DHT22;48396;48.426;1.500;2023-04-06T12:58:56;16.00;93.10
62363;DHT22;48396;48.426;1.500;2023-04-06T13:01:21;16.00;92.80
62363;DHT22;48396;48.426;1.500;2023-04-06T13:03:47;16.00;92.50
62363;DHT22;48396;48.426;1.500;2023-04-06T13:06:13;16.10;92.80
62363;DHT22;48396;48.426;1.500;2023-04-06T13:08:40;16.10;92.80
62363;DHT22;48396;48.426;1.500;2023-04-06T13:11:06;15.90;93.00
62363;DHT22;48396;48.426;1.500;2023-04-06T13:13:35;15.90;93.10
62363;DHT22;48396;48.426;1.500;2023-04-06T13:16:03;16.00;93.00
62363;DHT22;48396;48.426;1.500;2023-04-06T13:18:30;15.90;92.90
62363;DHT22;48396;48.426;1.500;2023-04-06T13:20:56;15.90;92.90
62363;DHT22;48396;48.426;1.500;2023-04-06T13:23:23;15.90;93.00
62363;DHT22;48396;48.426;1.500;2023-04-06T13:25:57;15.90;92.80
62363;DHT22;48396;48.426;1.500;2023-04-06T13:28:23;15.90;92.60
62363;DHT22;48396;48.426;1.500;2023-04-06T13:30:49;15.90;92.10
62363;DHT22;48396;48.426;1.500;2023-04-06T13:33:15;15.90;92.10
62363;DHT22;48396;48.426;1.500;2023-04-06T13:35:44;16.00;92.10
62363;DHT22;48396;48.426;1.500;2023-04-06T13:38:10;16.20;91.60
62363;DHT22;48396;48.426;1.500;2023-04-06T13:40:39;16.30;91.50
62363;DHT22;48396;48.426;1.500;2023-04-06T13:43:05;16.40;91.40
62363;DHT22;48396;48.426;1.500;2023-04-06T13:45:31;16.40;91.40
62363;DHT22;48396;48.426;1.500;2023-04-06T13:47:56;16.40;91.20
62363;DHT22;48396;48.426;1.500;2023-04-06T13:50:22;16.30;90.90
62363;DHT22;48396;48.426;1.500;2023-04-06T13:52:47;16.30;91.20
62363;DHT22;48396;48.426;1.500;2023-04-06T13:55:14;16.40;91.30
62363;DHT22;48396;48.426;1.500;2023-04-06T13:57:41;16.50;91.30
62363;DHT22;48396;48.426;1.500;2023-04-06T14:00:07;16.50;90.90
62363;DHT22;48396;48.426;1.500;2023-04-06T14:02:33;16.40;90.60
62363;DHT22;48396;48.426;1.500;2023-04-06T14:04:59;16.40;90.70
62363;DHT22;48396;48.426;1.500;2023-04-06T14:07:24;16.40;90.40
62363;DHT22;48396;48.426;1.500;2023-04-06T14:09:50;16.40;90.50
62363;DHT22;48396;48.426;1.500;2023-04-06T14:12:16;16.40;90.50
62363;DHT22;48396;48.426;1.500;2023-04-06T14:14:41;16.30;90.70
62363;DHT22;48396;48.426;1.500;2023-04-06T14:17:07;16.30;90.90
62363;DHT22;48396;48.426;1.500;2023-04-06T14:19:32;16.20;90.80
62363;DHT22;48396;48.426;1.500;2023-04-06T14:21:58;16.10;91.00
62363;DHT22;48396;48.426;1.500;2023-04-06T14:24:24;16.20;91.00
62363;DHT22;48396;48.426;1.500;2023-04-06T14:26:49;16.20;90.90
62363;DHT22;48396;48.426;1.500;2023-04-06T14:29:15;16.40;91.00
62363;DHT22;48396;48.426;1.500;2023-04-06T14:31:41;16.40;91.00
62363;DHT22;48396;48.426;1.500;2023-04-06T14:34:07;16.30;90.90
62363;DHT22;48396;48.426;1.500;2023-04-06T14:36:33;16.30;91.10
62363;DHT22;48396;48.426;1.500;2023-04-06T14:39:06;16.30;91.20
62363;DHT22;48396;48.426;1.500;2023-04-06T14:41:32;16.40;91.20
62363;DHT22;48396;48.426;1.500;2023-04-06T14:43:58;16.40;91.10
62363;DHT22;48396;48.426;1.500;2023-04-06T14:46:24;16.30;91.00
62363;DHT22;48396;48.426;1.500;2023-04-06T14:48:50;16.30;91.10
62363;DHT22;48396;48.426;1.500;2023-04-06T14:51:16;16.40;91.00
62363;DHT22;48396;48.426;1.500;2023-04-06T14:53:42;16.40;91.30
62363;DHT22;48396;48.426;1.500;2023-04-06T14:56:07;16.50;91.70
62363;DHT22;48396;48.426;1.500;2023-04-06T14:58:33;16.70;91.70
62363;DHT22;48396;48.426;1.500;2023-04-06T15:00:59;16.80;91.30
62363;DHT22;48396;48.426;1.500;2023-04-06T15:03:26;16.70;91.10
62363;DHT22;48396;48.426;1.500;2023-04-06T15:05:52;16.50;91.40
62363;DHT22;48396;48.426;1.500;2023-04-06T15:08:18;16.20;91.60
62363;DHT22;48396;48.426;1.500;2023-04-06T15:10:46;16.10;91.90
62363;DHT22;48396;48.426;1.500;2023-04-06T15:13:12;16.10;92.20
62363;DHT22;48396;48.426;1.500;2023-04-06T15:15:38;16.00;92.30
62363;DHT22;48396;48.426;1.500;2023-04-06T15:18:04;15.90;92.50
62363;DHT22;48396;48.426;1.500;2023-04-06T15:20:30;15.80;92.80
62363;DHT22;48396;48.426;1.500;2023-04-06T15:22:56;15.80;93.00
62363;DHT22;48396;48.426;1.500;2023-04-06T15:25:21;15.90;93.10
62363;DHT22;48396;48.426;1.500;2023-04-06T15:27:47;15.90;93.30
62363;DHT22;48396;48.426;1.500;2023-04-06T15:30:13;15.90;93.60
62363;DHT22;48396;48.426;1.500;2023-04-06T15:32:38;15.90;93.90
62363;DHT22;48396;48.426;1.500;2023-04-06T15:35:11;16.00;94.10
62363;DHT22;48396;48.426;1.500;2023-04-06T15:37:37;16.10;94.20
62363;DHT22;48396;48.426;1.500;2023-04-06T15:40:04;16.20;94.30
62363;DHT22;48396;48.426;1.500;2023-04-06T15:42:29;16.40;94.00
62363;DHT22;48396;48.426;1.500;2023-04-06T15:44:55;16.50;93.60
62363;DHT22;48396;48.426;1.500;2023-04-06T15:47:20;16.50;93.50
62363;DHT22;48396;48.426;1.500;2023-04-06T15:49:46;16.50;93.30
62363;DHT22;48396;48.426;1.500;2023-04-06T15:52:12;16.40;93.20
62363;DHT22;48396;48.426;1.500;2023-04-06T15:54:37;16.30;93.40
62363;DHT22;48396;48.426;1.500;2023-04-06T15:57:06;16.20;93.50
62363;DHT22;48396;48.426;1.500;2023-04-06T15:59:32;16.20;93.60
62363;DHT22;48396;48.426;1.500;2023-04-06T16:01:57;16.30;93.60
62363;DHT22;48396;48.426;1.500;2023-04-06T16:04:24;16.30;93.50
62363;DHT22;48396;48.426;1.500;2023-04-06T16:06:50;16.30;93.60
62363;DHT22;48396;48.426;1.500;2023-04-06T16:09:15;16.20;93.70
62363;DHT22;48396;48.426;1.500;2023-04-06T16:11:41;16.20;93.80
62363;DHT22;48396;48.426;1.500;2023-04-06T16:14:07;16.20;93.80
62363;DHT22;48396;48.426;1.500;2023-04-06T16:16:33;16.20;93.90
62363;DHT22;48396;48.426;1.500;2023-04-06T16:18:58;16.20;94.10
62363;DHT22;48396;48.426;1.500;2023-04-06T16:21:24;16.20;94.50
62363;DHT22;48396;48.426;1.500;2023-04-06T16:23:51;16.30;94.20
62363;DHT22;48396;48.426;1.500;2023-04-06T16:26:17;16.30;94.20
62363;DHT22;48396;48.426;1.500;2023-04-06T16:28:43;16.30;94.30
62363;DHT22;48396;48.426;1.500;2023-04-06T16:31:20;16.20;94.50
62363;DHT22;48396;48.426;1.500;2023-04-06T16:33:51;16.40;95.00
62363;DHT22;48396;48.426;1.500;2023-04-06T16:36:27;16.60;94.70
62363;DHT22;48396;48.426;1.500;2023-04-06T16:38:54;16.60;94.40
62363;DHT22;48396;48.426;1.500;2023-04-06T16:41:20;16.80;94.20
62363;DHT22;48396;48.426;1.500;2023-04-06T16:43:46;16.80;93.90
62363;DHT22;48396;48.426;1.500;2023-04-06T16:46:11;16.80;93.50
62363;DHT22;48396;48.426;1.500;2023-04-06T16:48:37;16.70;93.50
62363;DHT22;48396;48.426;1.500;2023-04-06T16:51:04;16.60;93.50
62363;DHT22;48396;48.426;1.500;2023-04-06T16:53:30;16.50;93.50
62363;DHT22;48396;48.426;1.500;2023-04-06T16:55:56;16.50;93.40
62363;DHT22;48396;48.426;1.500;2023-04-06T16:58:22;16.40;93.40
62363;DHT22;48396;48.426;1.500;2023-04-06T17:00:47;16.30;93.60
62363;DHT22;48396;48.426;1.500;2023-04-06T17:03:13;16.30;93.60
62363;DHT22;48396;48.426;1.500;2023-04-06T17:05:38;16.30;93.50
62363;DHT22;48396;48.426;1.500;2023-04-06T17:08:04;16.30;93.50
62363;DHT22;48396;48.426;1.500;2023-04-06T17:10:29;16.30;93.60
62363;DHT22;48396;48.426;1.500;2023-04-06T17:12:55;16.20;93.70
62363;DHT22;48396;48.426;1.500;2023-04-06T17:15:21;16.20;93.70
62363;DHT22;48396;48.426;1.500;2023-04-06T17:17:49;16.10;93.80
62363;DHT22;48396;48.426;1.500;2023-04-06T17:20:15;16.20;93.80
62363;DHT22;48396;48.426;1.500;2023-04-06T17:22:40;16.20;93.80